createdAt,value
2022-11-17T00:00:42.126Z,36.35
2022-11-17T00:03:15.328Z,37.78
2022-11-17T00:05:42.225Z,37.22
2022-11-17T00:08:08.646Z,34.45
2022-11-17T00:10:35.026Z,39.40
2022-11-17T00:13:20.026Z,39.35
2022-11-17T00:15:46.491Z,38.25
2022-11-17T00:18:31.459Z,37.33
2022-11-17T00:21:16.766Z,38.83
2022-11-17T00:23:49.710Z,41.08
2022-11-17T00:26:18.592Z,39.10
2022-11-17T00:28:45.104Z,43.80
2022-11-17T00:31:33.741Z,43.45
2022-11-17T00:34:06.389Z,47.22
2022-11-17T00:36:33.024Z,49.15
2022-11-17T00:38:59.368Z,55.10
2022-11-17T00:41:25.786Z,53.88
2022-11-17T00:43:52.223Z,50.35
2022-11-17T00:46:18.613Z,49.53
2022-11-17T00:48:44.970Z,48.15
2022-11-17T00:51:11.430Z,50.50
2022-11-17T00:53:38.008Z,50.20
2022-11-17T00:56:04.562Z,52.90
2022-11-17T00:58:31.030Z,54.88
2022-11-17T01:00:57.662Z,50.67
2022-11-17T01:03:24.033Z,49.55
2022-11-17T01:05:51.298Z,51.25
2022-11-17T01:08:17.637Z,51.35
2022-11-17T01:10:44.088Z,50.45
2022-11-17T01:13:10.493Z,47.35
2022-11-17T01:15:36.883Z,50.50
2022-11-17T01:18:03.539Z,50.67
2022-11-17T01:20:29.928Z,46.47
2022-11-17T01:22:56.311Z,48.03
2022-11-17T01:25:22.701Z,52.08
2022-11-17T01:27:49.089Z,51.10
2022-11-17T01:30:17.708Z,51.25
2022-11-17T01:32:44.739Z,44.90
2022-11-17T01:35:11.192Z,49.55
2022-11-17T01:37:37.615Z,49.13
2022-11-17T01:40:04.566Z,45.33
2022-11-17T01:42:31.586Z,50.95
2022-11-17T01:45:01.435Z,51.15
2022-11-17T01:47:36.947Z,48.05
2022-11-17T01:50:30.208Z,48.60
2022-11-17T01:53:00.650Z,48.33
2022-11-17T01:55:40.056Z,51.75
2022-11-17T01:58:11.620Z,48.60
2022-11-17T02:00:38.033Z,50.92
2022-11-17T02:03:07.096Z,50.25
2022-11-17T02:05:58.724Z,47.55
2022-11-17T02:08:28.985Z,48.08
2022-11-17T02:10:55.618Z,51.45
2022-11-17T02:13:23.195Z,48.42
2022-11-17T02:15:49.596Z,50.60
2022-11-17T02:18:17.084Z,45.38
2022-11-17T02:20:51.577Z,46.25
2022-11-17T02:23:20.616Z,46.88
2022-11-17T02:25:59.188Z,46.90
2022-11-17T02:28:36.180Z,46.55
2022-11-17T02:31:33.652Z,47.38
2022-11-17T02:34:23.234Z,45.88
2022-11-17T02:37:02.686Z,44.75
2022-11-17T02:39:40.232Z,48.35
2022-11-17T02:42:17.102Z,44.22
2022-11-17T02:45:05.494Z,52.78
2022-11-17T02:47:34.512Z,46.75
2022-11-17T02:50:06.931Z,53.05
2022-11-17T02:52:33.950Z,51.85
2022-11-17T02:55:02.666Z,50.88
2022-11-17T02:57:40.316Z,53.42
2022-11-17T03:00:20.461Z,51.05
2022-11-17T03:02:53.060Z,53.67
2022-11-17T03:05:37.687Z,50.65
2022-11-17T03:11:06.189Z,49.30
2022-11-17T03:13:52.178Z,49.35
2022-11-17T03:16:38.276Z,50.13
2022-11-17T03:19:10.730Z,49.78
2022-11-17T03:22:08.003Z,48.22
2022-11-17T03:24:39.858Z,51.80
2022-11-17T03:27:11.899Z,49.35
2022-11-17T03:29:43.007Z,48.22
2022-11-17T03:32:11.729Z,51.15
2022-11-17T03:34:44.034Z,49.42
2022-11-17T03:37:13.841Z,49.83
2022-11-17T03:39:44.947Z,52.03
2022-11-17T03:42:23.383Z,49.38
2022-11-17T03:44:55.528Z,52.78
2022-11-17T03:47:26.396Z,56.70
2022-11-17T03:50:05.765Z,58.33
2022-11-17T03:52:34.658Z,52.90
2022-11-17T03:55:02.471Z,52.22
2022-11-17T03:57:41.755Z,53.85
2022-11-17T04:00:14.221Z,51.13
2022-11-17T04:02:43.077Z,52.78
2022-11-17T04:05:10.787Z,52.03
2022-11-17T04:07:42.519Z,52.15
2022-11-17T04:10:11.927Z,55.22
2022-11-17T04:12:58.555Z,52.80
2022-11-17T04:15:44.528Z,48.20
2022-11-17T04:18:10.962Z,47.92
2022-11-17T04:20:37.512Z,49.60
2022-11-17T04:23:08.120Z,50.17
2022-11-17T04:26:05.483Z,50.08
2022-11-17T04:28:39.539Z,41.95
2022-11-17T04:31:14.935Z,47.28
2022-11-17T04:33:47.086Z,43.88
2022-11-17T04:36:17.349Z,46.33
2022-11-17T04:38:48.518Z,46.35
2022-11-17T04:41:35.065Z,47.85
2022-11-17T04:44:02.114Z,44.40
2022-11-17T04:46:31.052Z,46.97
2022-11-17T04:48:58.386Z,48.78
2022-11-17T04:51:25.843Z,48.85
2022-11-17T04:53:52.634Z,50.28
2022-11-17T04:56:20.605Z,49.75
2022-11-17T04:58:47.879Z,48.47
2022-11-17T05:01:16.473Z,52.95
2022-11-17T05:04:12.714Z,52.67
2022-11-17T05:06:42.318Z,51.38
2022-11-17T05:09:11.646Z,51.33
2022-11-17T05:11:56.639Z,49.60
2022-11-17T05:14:24.529Z,53.78
2022-11-17T05:17:11.377Z,52.92
2022-11-17T05:19:40.362Z,51.55
2022-11-17T05:22:28.647Z,52.72
2022-11-17T05:24:55.826Z,55.38
2022-11-17T05:27:23.471Z,52.38
2022-11-17T05:29:49.914Z,53.90
2022-11-17T05:32:16.765Z,52.50
2022-11-17T05:34:43.154Z,50.50
2022-11-17T05:37:09.564Z,51.17
2022-11-17T05:39:36.386Z,48.88
2022-11-17T05:42:03.352Z,50.13
2022-11-17T05:44:29.764Z,49.22
2022-11-17T05:46:56.096Z,52.05
2022-11-17T05:49:22.554Z,53.58
2022-11-17T05:51:52.700Z,52.80
2022-11-17T05:54:19.884Z,53.58
2022-11-17T05:56:49.311Z,55.22
2022-11-17T05:59:27.738Z,48.83
2022-11-17T06:02:04.639Z,55.10
2022-11-17T06:04:32.387Z,54.60
2022-11-17T06:07:00.446Z,53.70
2022-11-17T06:09:38.424Z,53.05
2022-11-17T06:12:06.404Z,51.33
2022-11-17T06:14:34.329Z,53.25
2022-11-17T06:17:05.294Z,52.42
2022-11-17T06:19:36.954Z,50.60
2022-11-17T06:22:12.275Z,50.33
2022-11-17T06:24:45.196Z,53.92
2022-11-17T06:27:17.517Z,48.47
2022-11-17T06:29:48.590Z,54.47
2022-11-17T06:32:17.626Z,52.78
2022-11-17T06:34:51.945Z,51.67
2022-11-17T06:37:22.099Z,55.60
2022-11-17T06:39:48.501Z,60.53
2022-11-17T06:42:14.831Z,55.08
2022-11-17T06:44:41.200Z,54.15
2022-11-17T06:47:07.715Z,52.28
2022-11-17T06:49:34.194Z,49.15
2022-11-17T06:52:00.699Z,46.22
2022-11-17T06:54:27.168Z,37.20
2022-11-17T06:56:55.248Z,40.63
2022-11-17T06:59:21.708Z,36.97
2022-11-17T07:01:51.461Z,33.22
2022-11-17T07:04:17.998Z,35.72
2022-11-17T07:06:44.454Z,35.95
2022-11-17T07:09:10.759Z,35.08
2022-11-17T07:11:37.491Z,33.63
2022-11-17T07:14:03.994Z,31.58
2022-11-17T07:16:32.404Z,34.72
2022-11-17T07:18:59.279Z,33.33
2022-11-17T07:21:26.125Z,32.70
2022-11-17T07:23:52.494Z,33.72
2022-11-17T07:26:19.378Z,33.25
2022-11-17T07:28:45.770Z,32.20
2022-11-17T07:31:12.461Z,33.10
2022-11-17T07:33:39.048Z,37.05
2022-11-17T07:36:11.033Z,33.97
2022-11-17T07:38:39.672Z,36.28
2022-11-17T07:41:07.961Z,34.55
2022-11-17T07:43:35.879Z,34.72
2022-11-17T07:46:08.974Z,38.42
2022-11-17T07:48:35.853Z,39.15
2022-11-17T07:51:04.359Z,40.97
2022-11-17T07:53:32.407Z,45.25
2022-11-17T07:56:07.510Z,47.25
2022-11-17T07:58:34.549Z,50.60
2022-11-17T08:01:19.657Z,51.72
2022-11-17T08:03:46.365Z,50.50
2022-11-17T08:06:13.139Z,53.08
2022-11-17T08:08:52.989Z,54.95
2022-11-17T08:11:34.230Z,53.38
2022-11-17T08:14:01.202Z,52.75
2022-11-17T08:16:30.624Z,52.83
2022-11-17T08:18:57.762Z,52.13
2022-11-17T08:21:24.559Z,53.63
2022-11-17T08:23:52.872Z,51.05
2022-11-17T08:26:20.771Z,50.50
2022-11-17T08:28:48.297Z,48.22
2022-11-17T08:31:16.623Z,47.47
2022-11-17T08:33:43.721Z,44.95
2022-11-17T08:36:10.162Z,47.38
2022-11-17T08:38:37.358Z,48.53
2022-11-17T08:41:11.586Z,51.63
2022-11-17T08:43:38.103Z,50.08
2022-11-17T08:46:04.706Z,50.38
2022-11-17T08:48:31.800Z,53.80
2022-11-17T08:50:58.905Z,50.17
2022-11-17T08:53:46.430Z,46.72
2022-11-17T08:56:13.106Z,43.40
2022-11-17T08:58:43.829Z,40.97
2022-11-17T09:01:12.165Z,40.38
2022-11-17T09:03:38.701Z,33.60
2022-11-17T09:06:05.891Z,37.70
2022-11-17T09:08:48.123Z,36.63
2022-11-17T09:11:22.434Z,37.97
2022-11-17T09:13:48.964Z,34.28
2022-11-17T09:16:17.089Z,30.35
2022-11-17T09:18:47.788Z,31.20
2022-11-17T09:21:15.694Z,30.50
2022-11-17T09:23:45.073Z,33.45
2022-11-17T09:26:16.340Z,35.22
2022-11-17T09:28:44.306Z,32.85
2022-11-17T09:31:16.916Z,34.90
2022-11-17T09:33:43.886Z,33.55
2022-11-17T09:36:11.938Z,37.47
2022-11-17T09:38:39.637Z,27.38
2022-11-17T09:41:19.036Z,29.88
2022-11-17T09:44:03.543Z,23.05
2022-11-17T09:46:50.916Z,22.77
2022-11-17T09:49:30.276Z,13.68
2022-11-17T09:52:02.717Z,13.25
2022-11-17T09:54:46.561Z,15.50
2022-11-17T09:57:21.379Z,12.32
2022-11-17T10:00:02.308Z,11.75
2022-11-17T10:02:29.335Z,12.20
2022-11-17T10:04:56.213Z,13.75
2022-11-17T10:07:23.184Z,15.07
2022-11-17T10:09:54.031Z,16.83
2022-11-17T10:12:26.415Z,17.48
2022-11-17T10:14:54.318Z,16.80
2022-11-17T10:17:20.734Z,18.65
2022-11-17T10:19:47.238Z,17.95
2022-11-17T10:22:36.320Z,16.98
2022-11-17T10:25:05.464Z,13.40
2022-11-17T10:27:34.242Z,12.63
2022-11-17T10:30:19.060Z,16.08
2022-11-17T10:32:54.271Z,18.60
2022-11-17T10:35:23.953Z,19.77
2022-11-17T10:37:57.987Z,16.52
2022-11-17T10:40:29.603Z,16.70
2022-11-17T10:43:14.310Z,14.18
2022-11-17T10:48:26.521Z,11.95
2022-11-17T10:51:13.275Z,11.68
2022-11-17T10:53:46.566Z,9.50
2022-11-17T10:56:22.822Z,9.85
2022-11-17T10:58:55.533Z,9.88
2022-11-17T11:01:29.611Z,10.82
2022-11-17T11:03:56.181Z,14.18
2022-11-17T11:06:26.701Z,11.80
2022-11-17T11:09:09.951Z,12.63
2022-11-17T11:11:54.118Z,9.10
2022-11-17T11:14:54.536Z,10.30
2022-11-17T11:17:20.964Z,8.23
2022-11-17T11:19:54.374Z,12.43
2022-11-17T11:23:03.379Z,9.37
2022-11-17T11:25:40.873Z,9.45
2022-11-17T11:28:22.524Z,8.88
2022-11-17T11:31:10.867Z,9.32
2022-11-17T11:33:42.645Z,7.78
2022-11-17T11:36:22.743Z,8.38
2022-11-17T11:38:56.469Z,8.88
2022-11-17T11:41:56.269Z,8.25
2022-11-17T11:44:22.568Z,7.80
2022-11-17T11:47:33.459Z,7.22
2022-11-17T11:50:17.913Z,7.10
2022-11-17T11:53:13.267Z,7.60
2022-11-17T11:55:41.879Z,8.10
2022-11-17T11:58:24.746Z,7.22
2022-11-17T12:01:05.790Z,7.72
2022-11-17T12:03:56.517Z,7.45
2022-11-17T12:06:41.250Z,6.60
2022-11-17T12:12:01.760Z,6.45
2022-11-17T12:14:29.637Z,7.47
2022-11-17T12:17:28.720Z,6.97
2022-11-17T12:19:58.786Z,7.72
2022-11-17T12:22:34.193Z,7.28
2022-11-17T12:25:31.784Z,7.45
2022-11-17T12:27:58.514Z,7.57
2022-11-17T12:30:33.597Z,7.10
2022-11-17T12:33:02.157Z,7.75
2022-11-17T12:35:30.552Z,7.30
2022-11-17T12:38:15.347Z,7.72
2022-11-17T12:40:51.412Z,7.65
2022-11-17T12:43:25.095Z,8.20
2022-11-17T12:46:04.074Z,7.60
2022-11-17T12:48:36.051Z,7.00
2022-11-17T12:51:13.549Z,7.07
2022-11-17T12:54:20.972Z,6.70
2022-11-17T12:56:54.913Z,6.78
2022-11-17T13:00:02.579Z,7.30
2022-11-17T13:02:47.679Z,6.97
2022-11-17T13:05:22.226Z,7.20
2022-11-17T13:07:48.960Z,7.50
2022-11-17T13:10:29.316Z,7.25
2022-11-17T13:13:23.573Z,8.32
2022-11-17T13:16:31.201Z,7.97
2022-11-17T13:23:25.967Z,7.47
2022-11-17T13:26:44.735Z,9.10
2022-11-17T13:30:08.557Z,7.40
2022-11-17T13:33:40.429Z,6.60
2022-11-17T13:37:37.730Z,8.63
2022-11-17T13:48:35.960Z,7.55
2022-11-17T13:54:49.731Z,7.35
2022-11-17T13:57:25.609Z,6.63
2022-11-17T14:00:01.907Z,7.28
2022-11-17T14:02:29.665Z,7.63
2022-11-17T14:05:19.552Z,7.25
2022-11-17T14:07:46.856Z,7.05
2022-11-17T14:10:27.852Z,7.13
2022-11-17T14:13:21.579Z,8.07
2022-11-17T14:15:55.554Z,8.68
2022-11-17T14:18:36.237Z,8.02
2022-11-17T14:21:08.381Z,7.25
2022-11-17T14:23:35.468Z,7.60
2022-11-17T14:26:01.833Z,7.40
2022-11-17T14:28:28.194Z,7.07
2022-11-17T14:30:56.309Z,8.68
2022-11-17T14:33:22.877Z,8.30
2022-11-17T14:35:59.622Z,8.80
2022-11-17T14:38:26.091Z,7.85
2022-11-17T14:40:53.654Z,7.65
2022-11-17T14:43:21.321Z,6.90
2022-11-17T14:45:50.890Z,8.40
2022-11-17T14:48:19.539Z,7.80
2022-11-17T14:50:47.583Z,7.47
2022-11-17T14:53:16.629Z,7.97
2022-11-17T14:55:43.071Z,8.70
2022-11-17T14:58:10.218Z,8.25
2022-11-17T15:00:36.860Z,8.75
2022-11-17T15:03:03.367Z,8.55
2022-11-17T15:05:29.849Z,8.82
2022-11-17T15:07:56.624Z,8.02
2022-11-17T15:10:26.075Z,8.60
2022-11-17T15:12:54.856Z,8.00
2022-11-17T15:15:21.267Z,8.93
2022-11-17T15:17:47.616Z,9.43
2022-11-17T15:20:14.050Z,10.15
2022-11-17T15:22:40.398Z,9.45
2022-11-17T15:25:08.002Z,7.75
2022-11-17T15:27:34.617Z,8.98
2022-11-17T15:30:01.071Z,8.25
2022-11-17T15:32:27.472Z,8.70
2022-11-17T15:34:53.853Z,7.95
2022-11-17T15:37:20.301Z,8.63
2022-11-17T15:39:46.638Z,8.90
2022-11-17T15:42:12.980Z,8.32
2022-11-17T15:44:39.305Z,8.60
2022-11-17T15:47:06.100Z,9.52
2022-11-17T15:49:32.410Z,8.35
2022-11-17T15:51:58.747Z,8.55
2022-11-17T15:54:25.155Z,8.45
2022-11-17T15:56:52.082Z,8.50
2022-11-17T15:59:19.086Z,8.70
2022-11-17T16:01:45.923Z,8.02
2022-11-17T16:04:15.618Z,8.90
2022-11-17T16:06:43.857Z,8.55
2022-11-17T16:09:11.907Z,8.43
2022-11-17T16:11:38.790Z,8.35
2022-11-17T16:14:05.650Z,8.18
2022-11-17T16:16:35.403Z,8.63
2022-11-17T16:19:02.410Z,8.55
2022-11-17T16:21:29.559Z,7.32
2022-11-17T16:23:57.760Z,8.32
2022-11-17T16:26:26.128Z,7.80
2022-11-17T16:28:59.525Z,7.60
2022-11-17T16:31:28.459Z,7.57
2022-11-17T16:33:59.838Z,7.00
2022-11-17T16:36:34.320Z,7.97
2022-11-17T16:39:05.861Z,7.20
2022-11-17T16:41:38.235Z,7.65
2022-11-17T16:44:13.572Z,7.00
2022-11-17T16:46:44.879Z,6.85
2022-11-17T16:49:13.603Z,9.75
2022-11-17T16:51:40.989Z,7.80
2022-11-17T16:54:11.395Z,8.60
2022-11-17T16:56:37.999Z,8.32
2022-11-17T16:59:04.476Z,8.50
2022-11-17T17:01:33.032Z,10.65
2022-11-17T17:04:02.038Z,9.63
2022-11-17T17:06:29.311Z,9.43
2022-11-17T17:09:05.188Z,8.93
2022-11-17T17:11:33.519Z,9.68
2022-11-17T17:14:03.066Z,11.27
2022-11-17T17:16:31.369Z,11.07
2022-11-17T17:19:01.625Z,10.68
2022-11-17T17:21:29.112Z,12.13
2022-11-17T17:23:56.051Z,10.88
2022-11-17T17:26:24.568Z,11.23
2022-11-17T17:28:53.933Z,11.48
2022-11-17T17:31:22.380Z,10.85
2022-11-17T17:33:50.555Z,12.43
2022-11-17T17:36:22.387Z,10.18
2022-11-17T17:38:55.047Z,10.98
2022-11-17T17:41:24.997Z,11.00
2022-11-17T17:44:08.078Z,11.18
2022-11-17T17:46:38.592Z,10.27
2022-11-17T17:49:06.168Z,9.65
2022-11-17T17:51:44.620Z,10.32
2022-11-17T17:54:19.804Z,11.20
2022-11-17T17:56:46.854Z,10.65
2022-11-17T17:59:14.367Z,11.77
2022-11-17T18:01:42.092Z,11.15
2022-11-17T18:04:12.663Z,11.27
2022-11-17T18:06:45.938Z,11.97
2022-11-17T18:09:14.473Z,12.35
2022-11-17T18:11:50.977Z,12.45
2022-11-17T18:14:21.049Z,13.85
2022-11-17T18:16:47.893Z,17.40
2022-11-17T18:19:15.781Z,16.25
2022-11-17T18:21:43.194Z,14.02
2022-11-17T18:24:11.462Z,16.02
2022-11-17T18:26:40.848Z,16.90
2022-11-17T18:29:11.953Z,17.27
2022-11-17T18:31:38.401Z,17.67
2022-11-17T18:34:14.529Z,18.17
2022-11-17T18:36:40.992Z,15.88
2022-11-17T18:39:07.562Z,26.67
2022-11-17T18:41:35.748Z,27.13
2022-11-17T18:44:02.283Z,50.60
2022-11-17T18:46:31.057Z,38.10
2022-11-17T18:48:58.125Z,28.70
2022-11-17T18:51:27.554Z,28.00
2022-11-17T18:53:55.336Z,32.80
2022-11-17T18:56:23.926Z,56.75
2022-11-17T18:58:51.048Z,41.53
2022-11-17T19:01:19.984Z,33.38
2022-11-17T19:03:49.238Z,32.53
2022-11-17T19:06:17.493Z,31.95
2022-11-17T19:08:45.241Z,41.25
2022-11-17T19:11:12.879Z,29.67
2022-11-17T19:13:49.183Z,24.75
2022-11-17T19:16:18.041Z,23.42
2022-11-17T19:18:46.692Z,25.42
2022-11-17T19:21:15.766Z,27.67
2022-11-17T19:23:49.627Z,31.08
2022-11-17T19:26:20.727Z,30.05
2022-11-17T19:28:47.777Z,31.27
2022-11-17T19:31:17.196Z,30.70
2022-11-17T19:33:45.216Z,28.95
2022-11-17T19:36:18.565Z,28.13
2022-11-17T19:38:48.249Z,22.27
2022-11-17T19:41:17.763Z,23.08
2022-11-17T19:43:45.623Z,22.42
2022-11-17T19:46:16.842Z,22.70
2022-11-17T19:48:44.377Z,26.27
2022-11-17T19:51:13.779Z,22.02
2022-11-17T19:53:40.624Z,22.05
2022-11-17T19:56:07.708Z,22.38
2022-11-17T19:58:34.147Z,21.92
2022-11-17T20:01:12.141Z,20.10
2022-11-17T20:03:39.656Z,20.63
2022-11-17T20:06:07.623Z,20.42
2022-11-17T20:08:34.061Z,21.25
2022-11-17T20:11:17.603Z,22.02
2022-11-17T20:13:44.742Z,21.42
2022-11-17T20:16:22.333Z,22.08
2022-11-17T20:18:51.250Z,20.08
2022-11-17T20:21:18.205Z,21.83
2022-11-17T20:23:45.355Z,21.67
2022-11-17T20:26:14.799Z,21.35
2022-11-17T20:28:42.086Z,19.98
2022-11-17T20:31:10.745Z,21.98
2022-11-17T20:33:38.953Z,21.67
2022-11-17T20:36:06.617Z,21.67
2022-11-17T20:38:33.323Z,24.75
2022-11-17T20:41:00.761Z,22.30
2022-11-17T20:43:28.036Z,21.58
2022-11-17T20:45:55.489Z,22.67
2022-11-17T20:48:23.249Z,20.83
2022-11-17T20:51:06.179Z,25.40
2022-11-17T20:53:33.116Z,23.80
2022-11-17T20:56:01.378Z,23.90
2022-11-17T20:58:28.796Z,23.30
2022-11-17T21:00:56.286Z,24.58
2022-11-17T21:03:24.121Z,24.45
2022-11-17T21:05:59.332Z,25.33
2022-11-17T21:08:27.682Z,23.00
2022-11-17T21:11:00.501Z,24.20
2022-11-17T21:13:28.559Z,24.77
2022-11-17T21:16:14.653Z,25.00
2022-11-17T21:18:48.157Z,21.60
2022-11-17T21:21:15.695Z,23.85
2022-11-17T21:23:42.808Z,24.15
2022-11-17T21:26:14.581Z,25.48
2022-11-17T21:28:41.388Z,26.00
2022-11-17T21:31:11.244Z,24.25
2022-11-17T21:33:38.477Z,25.67
2022-11-17T21:36:15.602Z,26.90
2022-11-17T21:38:42.747Z,25.27
2022-11-17T21:41:17.952Z,25.75
2022-11-17T21:43:47.380Z,25.75
2022-11-17T21:46:16.376Z,25.27
2022-11-17T21:48:43.662Z,26.45
2022-11-17T21:51:24.111Z,23.48
2022-11-17T21:53:55.659Z,21.88
2022-11-17T21:56:25.480Z,23.15
2022-11-17T21:58:59.982Z,23.13
2022-11-17T22:01:27.079Z,25.45
2022-11-17T22:03:53.516Z,24.27
2022-11-17T22:06:22.798Z,25.33
2022-11-17T22:08:50.297Z,24.00
2022-11-17T22:11:35.099Z,24.55
2022-11-17T22:14:16.199Z,23.55
2022-11-17T22:16:44.700Z,25.02
2022-11-17T22:19:12.021Z,26.92
2022-11-17T22:21:39.399Z,27.77
2022-11-17T22:24:08.207Z,27.35
2022-11-17T22:26:38.334Z,26.85
2022-11-17T22:29:06.462Z,26.33
2022-11-17T22:31:32.800Z,27.73
2022-11-17T22:33:59.270Z,26.27
2022-11-17T22:36:25.623Z,27.42
2022-11-17T22:38:52.352Z,28.52
2022-11-17T22:41:20.709Z,25.75
2022-11-17T22:43:55.431Z,25.33
2022-11-17T22:46:24.499Z,27.73
2022-11-17T22:48:51.246Z,29.80
2022-11-17T22:51:38.595Z,27.83
2022-11-17T22:54:06.513Z,26.02
2022-11-17T22:56:33.508Z,27.42
2022-11-17T22:59:00.217Z,26.48
2022-11-17T23:01:27.020Z,27.52
2022-11-17T23:03:53.509Z,27.08
2022-11-17T23:06:20.139Z,27.10
2022-11-17T23:08:46.592Z,26.75
2022-11-17T23:11:35.930Z,27.20
2022-11-17T23:13:59.637Z,26.75
2022-11-17T23:16:26.194Z,27.55
2022-11-17T23:18:56.534Z,26.42
2022-11-17T23:21:23.268Z,27.75
2022-11-17T23:23:49.822Z,24.55
2022-11-17T23:26:16.528Z,25.30
2022-11-17T23:28:43.353Z,25.17
2022-11-17T23:31:12.234Z,24.35
2022-11-17T23:33:41.185Z,27.17
2022-11-17T23:36:13.362Z,30.45
2022-11-17T23:38:40.092Z,27.60
2022-11-17T23:41:08.473Z,28.00
2022-11-17T23:43:34.950Z,26.85
2022-11-17T23:46:06.524Z,28.15
2022-11-17T23:48:32.869Z,26.95
2022-11-17T23:51:03.817Z,28.58
2022-11-17T23:53:30.146Z,27.67
2022-11-17T23:55:57.453Z,28.65
2022-11-17T23:58:24.300Z,28.55
